createdAt,value
2022-12-03T00:02:33.785Z,4.55
2022-12-03T00:07:36.999Z,5.68
2022-12-03T00:12:40.680Z,8.30
2022-12-03T00:17:43.868Z,9.73
2022-12-03T00:22:47.115Z,9.82
2022-12-03T00:27:50.264Z,5.70
2022-12-03T00:32:53.181Z,5.97
2022-12-03T00:37:56.342Z,5.13
2022-12-03T00:42:59.261Z,5.65
2022-12-03T00:48:02.326Z,5.00
2022-12-03T00:53:05.349Z,5.03
2022-12-03T00:58:09.901Z,4.28
2022-12-03T01:03:12.852Z,5.93
2022-12-03T01:08:15.862Z,5.07
2022-12-03T01:13:19.008Z,4.15
2022-12-03T01:18:22.156Z,5.05
2022-12-03T01:23:25.087Z,5.80
2022-12-03T01:28:29.596Z,5.50
2022-12-03T01:33:32.493Z,4.22
2022-12-03T01:38:35.418Z,4.25
2022-12-03T01:43:38.843Z,4.32
2022-12-03T01:48:42.084Z,3.88
2022-12-03T01:53:46.012Z,4.22
2022-12-03T01:58:49.099Z,5.45
2022-12-03T02:03:52.135Z,2.15
2022-12-03T02:09:00.162Z,5.20
2022-12-03T02:14:07.819Z,4.25
2022-12-03T02:19:22.811Z,5.28
2022-12-03T02:24:45.096Z,5.55
2022-12-03T02:29:48.220Z,6.88
2022-12-03T02:34:52.499Z,7.40
2022-12-03T02:39:58.863Z,3.97
2022-12-03T02:45:10.085Z,4.45
2022-12-03T02:50:16.117Z,4.80
2022-12-03T02:55:19.634Z,3.47
2022-12-03T03:00:23.319Z,4.28
2022-12-03T03:05:26.339Z,4.57
2022-12-03T03:10:30.076Z,4.50
2022-12-03T03:15:33.192Z,3.65
2022-12-03T03:20:37.277Z,3.45
2022-12-03T03:25:43.125Z,2.35
2022-12-03T03:30:46.239Z,3.03
2022-12-03T03:35:49.734Z,2.95
2022-12-03T03:40:53.528Z,2.92
2022-12-03T03:45:57.668Z,1.45
2022-12-03T03:51:03.856Z,2.15
2022-12-03T03:56:07.725Z,2.10
2022-12-03T04:01:13.053Z,2.72
2022-12-03T04:06:16.391Z,2.88
2022-12-03T04:11:38.779Z,1.92
2022-12-03T04:16:41.747Z,3.50
2022-12-03T04:22:03.558Z,1.30
2022-12-03T04:27:24.803Z,2.88
2022-12-03T04:32:46.035Z,3.42
2022-12-03T04:37:49.792Z,2.92
2022-12-03T04:42:52.704Z,2.78
2022-12-03T04:47:56.717Z,2.83
2022-12-03T04:52:59.694Z,3.20
2022-12-03T04:58:02.732Z,2.90
2022-12-03T05:03:05.745Z,2.50
2022-12-03T05:08:09.127Z,3.00
2022-12-03T05:13:12.134Z,2.90
2022-12-03T05:18:15.063Z,2.50
2022-12-03T05:23:18.065Z,3.42
2022-12-03T05:28:23.433Z,2.97
2022-12-03T05:33:26.568Z,3.17
2022-12-03T05:38:29.563Z,4.13
2022-12-03T05:43:32.482Z,4.53
2022-12-03T05:48:35.470Z,1.65
2022-12-03T05:53:38.571Z,3.25
2022-12-03T05:58:41.519Z,3.63
2022-12-03T06:03:44.676Z,3.70
2022-12-03T06:09:04.161Z,2.67
2022-12-03T06:14:07.185Z,3.20
2022-12-03T06:19:10.101Z,2.42
2022-12-03T06:24:13.380Z,2.03
2022-12-03T06:29:16.479Z,2.00
2022-12-03T06:34:19.413Z,2.30
2022-12-03T06:39:22.750Z,2.28
2022-12-03T06:44:25.717Z,2.72
2022-12-03T06:49:28.635Z,1.95
2022-12-03T06:54:31.724Z,2.67
2022-12-03T06:59:36.688Z,2.10
2022-12-03T07:04:43.413Z,0.93
2022-12-03T07:09:49.229Z,2.70
2022-12-03T07:14:52.540Z,3.13
2022-12-03T07:19:55.642Z,2.88
2022-12-03T07:24:58.814Z,2.90
2022-12-03T07:30:01.737Z,3.33
2022-12-03T07:35:07.668Z,2.72
2022-12-03T07:40:11.476Z,2.92
2022-12-03T07:45:14.405Z,3.38
2022-12-03T07:50:17.923Z,3.97
2022-12-03T07:55:20.948Z,4.85
2022-12-03T08:00:24.816Z,5.82
2022-12-03T08:05:29.958Z,7.90
2022-12-03T08:10:32.907Z,5.53
2022-12-03T08:15:39.460Z,7.13
2022-12-03T08:20:44.444Z,6.72
2022-12-03T08:25:48.668Z,5.97
2022-12-03T08:31:19.931Z,6.35
2022-12-03T08:36:30.665Z,6.30
2022-12-03T08:41:52.391Z,8.30
2022-12-03T08:47:16.632Z,4.28
2022-12-03T08:52:21.451Z,6.25
2022-12-03T08:57:32.986Z,4.30
2022-12-03T09:02:35.881Z,5.65
2022-12-03T09:07:38.983Z,4.85
2022-12-03T09:12:42.003Z,7.50
2022-12-03T09:17:44.942Z,8.20
2022-12-03T09:22:48.723Z,4.35
2022-12-03T09:27:51.951Z,5.72
2022-12-03T09:32:54.929Z,8.85
2022-12-03T09:37:57.993Z,5.28
2022-12-03T09:43:01.451Z,5.85
2022-12-03T09:48:04.622Z,7.85
2022-12-03T09:53:07.664Z,5.88
2022-12-03T09:58:13.132Z,5.10
2022-12-03T10:03:19.321Z,10.90
2022-12-03T10:08:26.996Z,6.13
2022-12-03T10:13:35.073Z,6.38
2022-12-03T10:18:42.291Z,4.53
2022-12-03T10:23:49.546Z,3.63
2022-12-03T10:28:57.070Z,2.30
2022-12-03T10:33:59.967Z,1.80
2022-12-03T10:39:16.700Z,3.47
2022-12-03T10:44:25.915Z,4.25
2022-12-03T10:49:29.065Z,2.60
2022-12-03T10:54:35.273Z,3.03
2022-12-03T10:59:41.649Z,5.72
2022-12-03T11:04:44.614Z,6.88
2022-12-03T11:09:52.617Z,7.05
2022-12-03T11:14:57.156Z,6.00
2022-12-03T11:20:00.304Z,4.78
2022-12-03T11:25:24.879Z,5.82
2022-12-03T11:30:49.391Z,7.60
2022-12-03T11:36:03.395Z,6.80
2022-12-03T11:41:26.265Z,7.72
2022-12-03T11:46:38.290Z,17.17
2022-12-03T11:51:44.546Z,9.88
2022-12-03T11:56:51.586Z,18.08
2022-12-03T12:06:57.466Z,34.13
2022-12-03T12:12:19.329Z,13.27
2022-12-03T12:17:36.572Z,23.77
2022-12-03T12:22:39.664Z,13.90
2022-12-03T12:27:47.558Z,7.00
2022-12-03T12:33:28.100Z,2.88
2022-12-03T12:38:30.975Z,1.77
2022-12-03T12:43:36.275Z,4.05
2022-12-03T12:48:39.664Z,5.63
2022-12-03T12:53:43.218Z,5.68
2022-12-03T12:58:46.585Z,5.00
2022-12-03T13:03:52.307Z,4.90
2022-12-03T13:08:55.820Z,4.13
2022-12-03T13:13:58.898Z,3.88
2022-12-03T13:19:02.640Z,2.92
2022-12-03T13:24:30.185Z,2.95
2022-12-03T13:34:36.101Z,4.85
2022-12-03T13:39:44.952Z,3.72
2022-12-03T13:44:50.214Z,2.92
2022-12-03T13:49:56.286Z,2.20
2022-12-03T13:54:59.489Z,3.38
2022-12-03T14:00:02.414Z,4.78
2022-12-03T14:05:15.364Z,5.57
2022-12-03T14:10:18.412Z,4.22
2022-12-03T14:15:21.879Z,2.20
2022-12-03T14:20:24.861Z,1.85
2022-12-03T14:25:27.836Z,1.30
2022-12-03T14:30:30.940Z,1.60
2022-12-03T14:35:34.066Z,1.70
2022-12-03T14:40:37.205Z,1.25
2022-12-03T14:45:40.148Z,2.20
2022-12-03T14:50:43.156Z,2.55
2022-12-03T14:55:48.504Z,1.90
2022-12-03T15:00:51.534Z,2.58
2022-12-03T15:06:00.882Z,3.90
2022-12-03T15:11:03.904Z,4.75
2022-12-03T15:16:07.133Z,5.75
2022-12-03T15:21:10.210Z,6.30
2022-12-03T15:26:13.197Z,3.85
2022-12-03T15:31:17.943Z,3.72
2022-12-03T15:36:21.029Z,2.15
2022-12-03T15:41:30.220Z,1.30
2022-12-03T15:46:33.301Z,1.55
2022-12-03T15:51:36.362Z,2.13
2022-12-03T15:56:39.358Z,1.70
2022-12-03T16:01:42.342Z,1.45
2022-12-03T16:06:45.300Z,1.00
2022-12-03T16:11:48.266Z,0.80
2022-12-03T16:16:52.371Z,1.33
2022-12-03T16:21:55.342Z,1.98
2022-12-03T16:26:58.346Z,1.40
2022-12-03T16:32:01.356Z,1.67
2022-12-03T16:37:05.092Z,1.20
2022-12-03T16:42:16.948Z,0.93
2022-12-03T16:47:22.541Z,0.95
2022-12-03T16:52:25.476Z,2.50
2022-12-03T16:57:33.443Z,2.22
2022-12-03T17:02:36.776Z,2.97
2022-12-03T17:07:39.900Z,3.30
2022-12-03T17:13:08.378Z,3.13
2022-12-03T17:18:06.522Z,0.80
2022-12-03T17:23:09.548Z,2.90
2022-12-03T17:28:12.690Z,2.88
2022-12-03T17:33:15.622Z,2.75
2022-12-03T17:38:18.665Z,3.08
2022-12-03T17:43:21.673Z,1.08
2022-12-03T17:48:24.692Z,2.15
2022-12-03T17:53:28.038Z,3.40
2022-12-03T17:58:31.101Z,1.60
2022-12-03T18:03:35.533Z,1.63
2022-12-03T18:08:38.519Z,2.58
2022-12-03T18:13:41.758Z,3.03
2022-12-03T18:18:45.077Z,2.90
2022-12-03T18:23:48.088Z,2.05
2022-12-03T18:28:51.462Z,2.35
2022-12-03T18:33:54.860Z,2.80
2022-12-03T18:38:58.732Z,2.60
2022-12-03T18:44:06.726Z,3.35
2022-12-03T18:49:10.650Z,3.78
2022-12-03T18:54:14.203Z,3.95
2022-12-03T18:59:17.164Z,3.60
2022-12-03T19:04:20.240Z,3.50
2022-12-03T19:09:23.239Z,3.97
2022-12-03T19:14:26.441Z,3.97
2022-12-03T19:19:30.140Z,3.30
2022-12-03T19:24:33.213Z,3.67
2022-12-03T19:29:36.318Z,3.47
2022-12-03T19:34:39.415Z,1.90
2022-12-03T19:39:43.448Z,3.75
2022-12-03T19:44:46.387Z,2.83
2022-12-03T19:49:49.293Z,3.72
2022-12-03T19:54:52.277Z,2.33
2022-12-03T19:59:55.473Z,2.38
2022-12-03T20:04:58.655Z,2.78
2022-12-03T20:10:01.647Z,3.05
2022-12-03T20:15:05.259Z,2.50
2022-12-03T20:20:08.715Z,3.03
2022-12-03T20:25:11.916Z,4.03
2022-12-03T20:30:15.149Z,3.75
2022-12-03T20:35:18.083Z,3.58
2022-12-03T20:40:21.173Z,3.90
2022-12-03T20:45:24.769Z,3.70
2022-12-03T20:50:27.918Z,2.28
2022-12-03T20:55:31.238Z,2.58
2022-12-03T21:00:34.184Z,2.95
2022-12-03T21:05:37.062Z,3.08
2022-12-03T21:10:46.970Z,4.40
2022-12-03T21:15:49.991Z,3.47
2022-12-03T21:20:53.014Z,3.10
2022-12-03T21:26:02.293Z,4.32
2022-12-03T21:31:07.857Z,3.83
2022-12-03T21:36:12.321Z,5.13
2022-12-03T21:41:15.921Z,5.53
2022-12-03T21:47:11.158Z,5.32
2022-12-03T21:51:41.993Z,4.30
2022-12-03T21:56:44.944Z,4.85
2022-12-03T22:01:47.944Z,5.00
2022-12-03T22:06:50.855Z,3.47
2022-12-03T22:11:55.854Z,4.13
2022-12-03T22:16:59.166Z,3.22
2022-12-03T22:22:02.087Z,2.05
2022-12-03T22:27:05.314Z,1.98
2022-12-03T22:32:08.285Z,1.58
2022-12-03T22:37:11.361Z,1.75
2022-12-03T22:42:14.573Z,2.35
2022-12-03T22:47:17.580Z,1.48
2022-12-03T22:52:20.531Z,2.00
2022-12-03T22:57:23.654Z,2.20
2022-12-03T23:02:26.665Z,1.33
2022-12-03T23:07:29.672Z,1.30
2022-12-03T23:12:33.425Z,1.58
2022-12-03T23:17:36.310Z,1.83
2022-12-03T23:22:39.212Z,1.65
2022-12-03T23:27:43.219Z,1.75
2022-12-03T23:32:46.142Z,1.60
2022-12-03T23:37:49.050Z,1.33
2022-12-03T23:42:52.086Z,2.53
2022-12-03T23:47:58.181Z,1.55
2022-12-03T23:53:01.424Z,2.92
2022-12-03T23:58:04.510Z,1.88
